createdAt,value
2018-01-28T00:00:33.106Z,90.30
2018-01-28T00:03:00.666Z,89.50
2018-01-28T00:05:28.194Z,88.90
2018-01-28T00:07:55.783Z,89.90
2018-01-28T00:10:23.392Z,88.00
2018-01-28T00:12:50.917Z,90.00
2018-01-28T00:15:20.234Z,89.30
2018-01-28T00:17:47.766Z,89.20
2018-01-28T00:20:15.340Z,88.60
2018-01-28T00:22:43.638Z,86.50
2018-01-28T00:25:11.209Z,86.50
2018-01-28T00:27:39.729Z,86.90
2018-01-28T00:30:08.310Z,86.30
2018-01-28T00:32:35.832Z,89.00
2018-01-28T00:35:03.363Z,87.80
2018-01-28T00:37:30.923Z,86.40
2018-01-28T00:39:58.465Z,87.30
2018-01-28T00:42:26.785Z,87.60
2018-01-28T00:44:54.305Z,87.50
2018-01-28T00:47:22.622Z,88.20
2018-01-28T00:49:50.157Z,88.20
2018-01-28T00:52:17.706Z,89.70
2018-01-28T00:54:45.219Z,89.50
2018-01-28T00:57:12.777Z,89.50
2018-01-28T00:59:40.306Z,88.80
2018-01-28T01:02:07.839Z,89.60
2018-01-28T01:04:36.161Z,87.70
2018-01-28T01:07:03.687Z,87.70
2018-01-28T01:09:31.287Z,88.60
2018-01-28T01:11:58.789Z,88.10
2018-01-28T01:14:27.098Z,87.60
2018-01-28T01:16:54.619Z,87.60
2018-01-28T01:19:22.929Z,87.90
2018-01-28T01:21:50.455Z,87.90
2018-01-28T01:24:18.015Z,87.00
2018-01-28T01:26:46.303Z,87.00
2018-01-28T01:29:14.619Z,86.90
2018-01-28T01:31:42.138Z,86.90
2018-01-28T01:34:10.434Z,85.60
2018-01-28T01:36:37.994Z,85.70
2018-01-28T01:39:05.539Z,85.60
2018-01-28T01:41:33.090Z,86.80
2018-01-28T01:44:01.375Z,86.90
2018-01-28T01:46:28.934Z,86.90
2018-01-28T01:48:56.458Z,87.50
2018-01-28T01:51:24.011Z,87.40
2018-01-28T01:53:51.537Z,86.60
2018-01-28T01:56:19.094Z,86.70
2018-01-28T01:58:46.618Z,87.00
2018-01-28T02:01:14.908Z,87.40
2018-01-28T02:03:42.450Z,87.40
2018-01-28T02:06:11.707Z,87.00
2018-01-28T02:08:39.266Z,87.00
2018-01-28T02:11:07.715Z,87.00
2018-01-28T02:13:35.258Z,87.70
2018-01-28T02:16:02.790Z,86.30
2018-01-28T02:18:32.274Z,85.80
2018-01-28T02:20:59.839Z,86.20
2018-01-28T02:23:27.367Z,86.40
2018-01-28T02:25:54.927Z,86.70
2018-01-28T02:28:22.473Z,87.50
2018-01-28T02:30:50.029Z,87.40
2018-01-28T02:33:18.542Z,87.10
2018-01-28T02:35:46.080Z,87.20
2018-01-28T02:38:13.642Z,86.90
2018-01-28T02:40:41.224Z,86.90
2018-01-28T02:43:08.753Z,86.50
2018-01-28T02:45:36.308Z,85.60
2018-01-28T02:48:03.831Z,85.40
2018-01-28T02:50:31.391Z,85.90
2018-01-28T02:52:58.910Z,85.90
2018-01-28T02:55:27.428Z,86.90
2018-01-28T02:57:54.966Z,86.40
2018-01-28T03:00:22.506Z,87.50
2018-01-28T03:02:50.058Z,87.30
2018-01-28T03:05:17.579Z,86.70
2018-01-28T03:07:45.894Z,87.50
2018-01-28T03:10:14.392Z,87.50
2018-01-28T03:12:43.906Z,88.10
2018-01-28T03:15:11.434Z,88.00
2018-01-28T03:17:38.950Z,88.80
2018-01-28T03:20:06.872Z,88.50
2018-01-28T03:22:34.403Z,88.50
2018-01-28T03:25:01.962Z,88.80
2018-01-28T03:27:29.492Z,88.10
2018-01-28T03:29:58.778Z,86.70
2018-01-28T03:32:26.360Z,86.70
2018-01-28T03:34:54.818Z,87.30
2018-01-28T03:37:23.343Z,87.30
2018-01-28T03:39:51.815Z,87.10
2018-01-28T03:42:19.396Z,86.40
2018-01-28T03:44:47.873Z,87.10
2018-01-28T03:47:15.431Z,87.10
2018-01-28T03:49:42.954Z,87.10
2018-01-28T03:52:11.443Z,87.80
2018-01-28T03:54:38.991Z,89.40
2018-01-28T03:57:06.530Z,90.10
2018-01-28T03:59:34.115Z,88.70
2018-01-28T04:02:02.413Z,87.10
2018-01-28T04:04:29.963Z,87.00
2018-01-28T04:06:57.494Z,86.50
2018-01-28T04:09:25.804Z,88.20
2018-01-28T04:11:53.371Z,88.10
2018-01-28T04:14:20.902Z,87.30
2018-01-28T04:16:48.463Z,86.90
2018-01-28T04:19:15.979Z,86.60
2018-01-28T04:21:43.510Z,86.30
2018-01-28T04:24:12.998Z,85.50
2018-01-28T04:26:40.811Z,84.80
2018-01-28T04:29:08.367Z,84.70
2018-01-28T04:31:35.896Z,84.20
2018-01-28T04:34:03.446Z,85.20
2018-01-28T04:36:30.973Z,86.10
2018-01-28T04:38:58.552Z,86.90
2018-01-28T04:41:26.110Z,86.20
2018-01-28T04:43:53.639Z,86.60
2018-01-28T04:46:21.215Z,87.50
2018-01-28T04:48:49.725Z,87.10
2018-01-28T04:51:17.311Z,86.50
2018-01-28T04:53:44.878Z,88.50
2018-01-28T04:56:12.405Z,90.00
2018-01-28T04:58:39.962Z,88.70
2018-01-28T05:01:07.502Z,87.50
2018-01-28T05:03:35.030Z,87.20
2018-01-28T05:06:04.535Z,87.40
2018-01-28T05:08:32.058Z,86.70
2018-01-28T05:11:00.617Z,86.70
2018-01-28T05:13:29.137Z,86.00
2018-01-28T05:15:56.675Z,86.00
2018-01-28T05:18:25.207Z,85.70
2018-01-28T05:20:52.736Z,85.60
2018-01-28T05:23:20.280Z,85.00
2018-01-28T05:25:47.798Z,85.10
2018-01-28T05:28:16.119Z,85.90
2018-01-28T05:30:43.655Z,85.90
2018-01-28T05:33:11.179Z,85.20
2018-01-28T05:35:40.660Z,85.80
2018-01-28T05:38:08.951Z,85.20
2018-01-28T05:40:36.517Z,85.00
2018-01-28T05:43:04.045Z,84.80
2018-01-28T05:45:31.578Z,85.10
2018-01-28T05:47:59.134Z,84.50
2018-01-28T05:50:26.658Z,85.30
2018-01-28T05:52:54.212Z,84.80
2018-01-28T05:55:22.502Z,83.80
2018-01-28T05:57:50.059Z,83.80
2018-01-28T06:00:18.382Z,84.30
2018-01-28T06:02:46.850Z,84.30
2018-01-28T06:05:14.415Z,84.10
2018-01-28T06:07:41.970Z,84.70
2018-01-28T06:10:09.512Z,84.90
2018-01-28T06:12:37.063Z,84.00
2018-01-28T06:15:04.587Z,84.80
2018-01-28T06:17:32.911Z,84.20
2018-01-28T06:20:00.434Z,84.20
2018-01-28T06:22:28.762Z,85.10
2018-01-28T06:24:57.258Z,85.10
2018-01-28T06:27:24.774Z,85.40
2018-01-28T06:29:52.350Z,87.10
2018-01-28T06:32:19.889Z,88.40
2018-01-28T06:34:47.443Z,86.90
2018-01-28T06:37:14.975Z,85.60
2018-01-28T06:39:44.489Z,85.20
2018-01-28T06:42:12.778Z,87.00
2018-01-28T06:44:41.059Z,86.20
2018-01-28T06:47:09.374Z,86.50
2018-01-28T06:49:36.892Z,86.50
2018-01-28T06:52:05.179Z,84.40
2018-01-28T06:54:32.731Z,84.40
2018-01-28T06:57:00.254Z,84.60
2018-01-28T06:59:27.775Z,85.30
2018-01-28T07:01:55.349Z,85.20
2018-01-28T07:04:22.888Z,85.00
2018-01-28T07:06:50.447Z,85.00
2018-01-28T07:09:18.038Z,85.50
2018-01-28T07:11:46.526Z,84.70
2018-01-28T07:14:14.051Z,84.60
2018-01-28T07:16:41.594Z,85.20
2018-01-28T07:19:09.159Z,85.60
2018-01-28T07:21:36.696Z,84.90
2018-01-28T07:24:05.019Z,84.50
2018-01-28T07:26:32.542Z,84.50
2018-01-28T07:29:00.066Z,85.00
2018-01-28T07:31:27.668Z,85.20
2018-01-28T07:33:56.206Z,85.70
2018-01-28T07:36:23.763Z,84.60
2018-01-28T07:38:51.294Z,85.80
2018-01-28T07:41:18.831Z,84.50
2018-01-28T07:43:46.385Z,83.40
2018-01-28T07:46:14.000Z,83.40
2018-01-28T07:48:43.504Z,83.40
2018-01-28T07:51:11.030Z,82.20
2018-01-28T07:53:38.598Z,82.60
2018-01-28T07:56:06.140Z,83.30
2018-01-28T07:58:33.814Z,82.40
2018-01-28T08:01:01.375Z,82.00
2018-01-28T08:03:28.912Z,80.50
2018-01-28T08:05:57.433Z,79.60
2018-01-28T08:08:24.966Z,79.80
2018-01-28T08:10:57.019Z,80.50
2018-01-28T08:13:24.540Z,80.20
2018-01-28T08:15:52.867Z,81.30
2018-01-28T08:18:20.396Z,81.30
2018-01-28T08:20:48.908Z,81.70
2018-01-28T08:23:17.402Z,80.50
2018-01-28T08:25:44.937Z,82.50
2018-01-28T08:28:18.095Z,81.70
2018-01-28T08:30:46.604Z,80.80
2018-01-28T08:33:14.163Z,80.90
2018-01-28T08:35:41.702Z,82.10
2018-01-28T08:38:09.238Z,81.30
2018-01-28T08:40:37.563Z,82.50
2018-01-28T08:43:06.069Z,81.70
2018-01-28T08:45:33.626Z,82.10
2018-01-28T08:48:01.257Z,82.80
2018-01-28T08:50:28.771Z,81.60
2018-01-28T08:52:57.201Z,79.60
2018-01-28T08:55:24.738Z,79.50
2018-01-28T08:57:53.282Z,78.00
2018-01-28T09:00:20.814Z,78.80
2018-01-28T09:02:48.339Z,81.50
2018-01-28T09:05:15.895Z,79.70
2018-01-28T09:07:43.426Z,80.10
2018-01-28T09:10:10.988Z,81.70
2018-01-28T09:12:39.276Z,81.60
2018-01-28T09:15:06.811Z,81.60
2018-01-28T09:17:34.362Z,80.30
2018-01-28T09:20:02.643Z,77.90
2018-01-28T09:22:30.201Z,77.70
2018-01-28T09:24:58.696Z,77.10
2018-01-28T09:27:26.210Z,75.30
2018-01-28T09:29:53.750Z,74.60
2018-01-28T09:32:21.264Z,73.40
2018-01-28T09:34:48.810Z,71.80
2018-01-28T09:37:17.295Z,70.70
2018-01-28T09:39:44.863Z,70.80
2018-01-28T09:42:12.387Z,70.30
2018-01-28T09:44:40.905Z,71.20
2018-01-28T09:47:08.467Z,72.00
2018-01-28T09:49:36.758Z,71.80
2018-01-28T09:52:05.071Z,71.40
2018-01-28T09:54:32.631Z,71.40
2018-01-28T09:57:00.150Z,71.50
2018-01-28T09:59:28.466Z,70.30
2018-01-28T10:01:56.000Z,70.30
2018-01-28T10:04:23.522Z,71.30
2018-01-28T10:06:53.039Z,73.00
2018-01-28T10:09:21.517Z,73.80
2018-01-28T10:11:49.067Z,70.60
2018-01-28T10:14:16.594Z,72.80
2018-01-28T10:16:44.146Z,71.60
2018-01-28T10:19:11.676Z,68.80
2018-01-28T10:21:39.218Z,69.40
2018-01-28T10:24:06.787Z,68.30
2018-01-28T10:26:35.088Z,68.10
2018-01-28T10:29:02.640Z,68.10
2018-01-28T10:31:30.173Z,68.30
2018-01-28T10:33:57.718Z,69.50
2018-01-28T10:36:26.195Z,69.10
2018-01-28T10:38:53.723Z,68.10
2018-01-28T10:41:21.296Z,68.70
2018-01-28T10:43:48.831Z,70.10
2018-01-28T10:46:16.390Z,71.50
2018-01-28T10:48:43.912Z,72.40
2018-01-28T10:51:11.449Z,72.60
2018-01-28T10:53:39.780Z,74.10
2018-01-28T10:56:07.302Z,74.00
2018-01-28T10:58:35.623Z,73.00
2018-01-28T11:01:03.179Z,73.00
2018-01-28T11:03:30.732Z,72.70
2018-01-28T11:05:58.256Z,71.80
2018-01-28T11:08:26.538Z,70.10
2018-01-28T11:10:54.855Z,66.40
2018-01-28T11:13:22.394Z,66.40
2018-01-28T11:15:50.919Z,65.10
2018-01-28T11:18:18.451Z,65.30
2018-01-28T11:20:46.023Z,64.40
2018-01-28T11:23:13.559Z,62.80
2018-01-28T11:25:41.086Z,64.50
2018-01-28T11:28:08.649Z,61.90
2018-01-28T11:30:37.163Z,62.10
2018-01-28T11:33:04.719Z,60.40
2018-01-28T11:35:32.247Z,60.00
2018-01-28T11:38:00.560Z,59.10
2018-01-28T11:40:28.129Z,59.10
2018-01-28T11:42:55.654Z,59.70
2018-01-28T11:45:23.223Z,59.60
2018-01-28T11:47:50.771Z,61.80
2018-01-28T11:50:18.329Z,59.30
2018-01-28T11:52:46.829Z,58.30
2018-01-28T11:55:14.408Z,57.30
2018-01-28T11:57:41.940Z,59.40
2018-01-28T12:00:09.467Z,59.50
2018-01-28T12:02:37.784Z,57.50
2018-01-28T12:05:06.251Z,57.50
2018-01-28T12:07:33.802Z,58.60
2018-01-28T12:10:01.322Z,58.70
2018-01-28T12:12:28.842Z,56.70
2018-01-28T12:14:56.700Z,56.80
2018-01-28T12:17:24.230Z,56.00
2018-01-28T12:19:52.575Z,56.40
2018-01-28T12:22:20.875Z,55.90
2018-01-28T12:24:48.434Z,55.50
2018-01-28T12:27:15.966Z,56.50
2018-01-28T12:29:43.514Z,56.70
2018-01-28T12:32:12.001Z,55.60
2018-01-28T12:34:39.533Z,55.60
2018-01-28T12:37:07.088Z,56.60
2018-01-28T12:39:34.622Z,55.20
2018-01-28T12:42:02.951Z,54.50
2018-01-28T12:44:30.483Z,54.50
2018-01-28T12:46:58.008Z,54.90
2018-01-28T12:49:25.554Z,54.20
2018-01-28T12:51:53.079Z,53.80
2018-01-28T12:54:20.631Z,54.30
2018-01-28T12:56:48.162Z,55.20
2018-01-28T12:59:15.721Z,55.80
2018-01-28T13:01:43.245Z,54.10
2018-01-28T13:04:11.553Z,54.30
2018-01-28T13:06:39.106Z,54.20
2018-01-28T13:09:06.629Z,53.80
2018-01-28T13:11:34.186Z,54.50
2018-01-28T13:14:02.477Z,55.50
2018-01-28T13:16:30.033Z,55.50
2018-01-28T13:18:58.525Z,56.50
2018-01-28T13:21:26.863Z,56.60
2018-01-28T13:23:54.391Z,56.60
2018-01-28T13:26:23.041Z,55.90
2018-01-28T13:28:52.534Z,56.80
2018-01-28T13:31:21.028Z,57.50
2018-01-28T13:33:48.587Z,57.60
2018-01-28T13:36:16.108Z,56.00
2018-01-28T13:38:43.664Z,55.60
2018-01-28T13:41:11.231Z,54.80
2018-01-28T13:43:39.728Z,54.40
2018-01-28T13:46:07.308Z,54.50
2018-01-28T13:48:35.607Z,54.20
2018-01-28T13:51:03.171Z,54.20
2018-01-28T13:53:30.731Z,54.30
2018-01-28T13:55:58.272Z,55.60
2018-01-28T13:58:25.823Z,57.20
2018-01-28T14:00:53.380Z,58.30
2018-01-28T14:03:20.900Z,58.00
2018-01-28T14:05:49.401Z,57.60
2018-01-28T14:08:16.950Z,56.50
2018-01-28T14:10:44.491Z,55.80
2018-01-28T14:13:12.046Z,55.30
2018-01-28T14:15:39.575Z,56.00
2018-01-28T14:18:07.139Z,57.00
2018-01-28T14:20:34.688Z,58.10
2018-01-28T14:23:02.217Z,56.20
2018-01-28T14:25:30.544Z,55.70
2018-01-28T14:27:58.091Z,55.70
2018-01-28T14:30:25.659Z,55.50
2018-01-28T14:32:54.150Z,55.10
2018-01-28T14:35:21.706Z,55.20
2018-01-28T14:37:49.235Z,55.10
2018-01-28T14:40:17.575Z,56.50
2018-01-28T14:42:45.099Z,56.50
2018-01-28T14:45:12.633Z,56.60
2018-01-28T14:47:40.188Z,57.30
2018-01-28T14:50:08.481Z,58.20
2018-01-28T14:52:36.054Z,58.20
2018-01-28T14:55:03.598Z,59.00
2018-01-28T14:57:31.155Z,59.40
2018-01-28T14:59:58.683Z,59.80
2018-01-28T15:02:26.214Z,59.70
2018-01-28T15:04:53.763Z,60.30
2018-01-28T15:07:21.291Z,60.20
2018-01-28T15:09:48.847Z,61.00
2018-01-28T15:12:16.378Z,60.30
2018-01-28T15:14:44.901Z,61.40
2018-01-28T15:17:12.434Z,62.20
2018-01-28T15:19:40.007Z,63.00
2018-01-28T15:22:09.528Z,62.80
2018-01-28T15:24:37.070Z,64.10
2018-01-28T15:27:04.649Z,65.10
2018-01-28T15:29:32.204Z,64.80
2018-01-28T15:31:59.775Z,63.40
2018-01-28T15:34:29.294Z,63.90
2018-01-28T15:36:56.839Z,63.60
2018-01-28T15:39:24.399Z,64.00
2018-01-28T15:41:51.961Z,64.50
2018-01-28T15:44:19.519Z,64.50
2018-01-28T15:46:47.085Z,64.50
2018-01-28T15:49:14.622Z,65.00
2018-01-28T15:51:43.160Z,64.80
2018-01-28T15:54:11.480Z,66.00
2018-01-28T15:56:39.109Z,65.90
2018-01-28T15:59:06.638Z,65.60
2018-01-28T16:01:34.212Z,66.10
2018-01-28T16:04:01.749Z,65.90
2018-01-28T16:06:29.307Z,67.20
2018-01-28T16:08:56.851Z,66.70
2018-01-28T16:11:24.397Z,67.50
2018-01-28T16:13:51.949Z,67.70
2018-01-28T16:16:19.484Z,68.40
2018-01-28T16:18:47.819Z,69.60
2018-01-28T16:21:15.347Z,69.50
2018-01-28T16:23:42.887Z,70.30
2018-01-28T16:26:10.440Z,69.70
2018-01-28T16:28:38.730Z,70.50
2018-01-28T16:31:06.374Z,70.50
2018-01-28T16:33:34.678Z,71.40
2018-01-28T16:36:02.252Z,71.30
2018-01-28T16:38:29.793Z,71.40
2018-01-28T16:40:57.376Z,71.90
2018-01-28T16:43:24.904Z,72.20
2018-01-28T16:45:52.468Z,72.00
2018-01-28T16:48:20.039Z,72.10
2018-01-28T16:50:47.622Z,72.60
2018-01-28T16:53:22.866Z,72.90
2018-01-28T16:56:00.676Z,72.30
2018-01-28T16:58:29.099Z,72.30
2018-01-28T17:00:56.643Z,74.00
2018-01-28T17:03:35.194Z,74.60
2018-01-28T17:06:02.778Z,74.60
2018-01-28T17:08:30.366Z,74.50
2018-01-28T17:10:57.907Z,74.80
2018-01-28T17:13:25.443Z,76.80
2018-01-28T17:15:54.062Z,77.30
2018-01-28T17:18:21.583Z,77.30
2018-01-28T17:20:49.162Z,77.20
2018-01-28T17:23:16.892Z,77.40
2018-01-28T17:25:45.479Z,77.60
2018-01-28T17:28:13.026Z,77.60
2018-01-28T17:30:40.555Z,77.70
2018-01-28T17:33:08.121Z,78.10
2018-01-28T17:35:42.160Z,78.20
2018-01-28T17:38:09.737Z,78.20
2018-01-28T17:40:37.287Z,78.30
2018-01-28T17:43:04.833Z,78.70
2018-01-28T17:45:32.390Z,78.50
2018-01-28T17:47:59.934Z,78.50
2018-01-28T17:50:29.222Z,78.20
2018-01-28T17:52:56.811Z,79.10
2018-01-28T17:55:24.335Z,79.70
2018-01-28T17:57:54.676Z,80.40
2018-01-28T18:00:22.317Z,80.40
2018-01-28T18:02:49.858Z,80.00
2018-01-28T18:05:17.442Z,80.00
2018-01-28T18:07:44.975Z,80.20
2018-01-28T18:10:12.546Z,81.10
2018-01-28T18:12:40.074Z,81.10
2018-01-28T18:15:07.591Z,80.00
2018-01-28T18:17:35.743Z,79.10
2018-01-28T18:20:04.045Z,79.60
2018-01-28T18:22:31.639Z,79.60
2018-01-28T18:24:59.184Z,79.10
2018-01-28T18:27:26.755Z,79.40
2018-01-28T18:29:54.283Z,81.10
2018-01-28T18:32:21.810Z,81.50
2018-01-28T18:34:49.383Z,81.70
2018-01-28T18:37:17.708Z,81.40
2018-01-28T18:39:45.249Z,81.40
2018-01-28T18:42:12.811Z,81.10
2018-01-28T18:44:40.335Z,81.00
2018-01-28T18:47:07.875Z,80.70
2018-01-28T18:49:35.450Z,81.20
2018-01-28T18:52:03.748Z,81.30
2018-01-28T18:54:31.305Z,81.20
2018-01-28T18:56:58.862Z,81.40
2018-01-28T18:59:26.795Z,81.50
2018-01-28T19:01:54.362Z,81.20
2018-01-28T19:04:22.684Z,81.70
2018-01-28T19:06:50.208Z,81.60
2018-01-28T19:09:17.814Z,81.60
2018-01-28T19:11:45.393Z,81.50
2018-01-28T19:14:14.010Z,81.90
2018-01-28T19:16:42.326Z,81.90
2018-01-28T19:19:09.845Z,82.00
2018-01-28T19:21:38.147Z,82.50
2018-01-28T19:24:05.751Z,82.40
2018-01-28T19:26:33.371Z,82.40
2018-01-28T19:29:00.944Z,82.70
2018-01-28T19:31:28.473Z,82.50
2018-01-28T19:33:56.006Z,82.40
2018-01-28T19:36:23.554Z,83.50
2018-01-28T19:38:51.087Z,83.50
2018-01-28T19:41:19.626Z,83.30
2018-01-28T19:43:47.931Z,83.20
2018-01-28T19:46:15.458Z,83.20
2018-01-28T19:48:43.021Z,83.10
2018-01-28T19:51:11.338Z,83.40
2018-01-28T19:53:38.908Z,83.40
2018-01-28T19:56:06.426Z,83.60
2018-01-28T19:58:34.950Z,83.80
2018-01-28T20:01:02.466Z,83.60
2018-01-28T20:03:29.996Z,83.20
2018-01-28T20:05:57.551Z,82.90
2018-01-28T20:08:25.079Z,83.60
2018-01-28T20:10:52.638Z,83.60
2018-01-28T20:13:20.159Z,83.70
2018-01-28T20:15:48.449Z,83.80
2018-01-28T20:18:17.972Z,83.80
2018-01-28T20:20:45.529Z,84.00
2018-01-28T20:23:13.098Z,84.20
2018-01-28T20:25:40.628Z,83.80
2018-01-28T20:28:10.151Z,84.10
2018-01-28T20:30:37.692Z,84.40
2018-01-28T20:33:05.246Z,84.00
2018-01-28T20:35:32.782Z,83.80
2018-01-28T20:38:00.330Z,83.10
2018-01-28T20:40:27.850Z,83.50
2018-01-28T20:42:55.371Z,83.50
2018-01-28T20:45:23.699Z,83.40
2018-01-28T20:47:51.226Z,83.40
2018-01-28T20:50:18.799Z,84.30
2018-01-28T20:52:46.337Z,84.30
2018-01-28T20:55:13.866Z,83.70
2018-01-28T20:57:42.351Z,83.80
2018-01-28T21:00:09.921Z,83.00
2018-01-28T21:02:37.470Z,83.40
2018-01-28T21:05:05.761Z,84.10
2018-01-28T21:07:33.451Z,84.10
2018-01-28T21:10:00.982Z,84.20
2018-01-28T21:12:28.530Z,83.90
2018-01-28T21:14:56.126Z,84.30
2018-01-28T21:17:23.666Z,84.20
2018-01-28T21:19:51.231Z,84.00
2018-01-28T21:22:18.760Z,84.30
2018-01-28T21:24:47.096Z,85.50
2018-01-28T21:27:14.610Z,86.10
2018-01-28T21:29:42.922Z,84.20
2018-01-28T21:32:10.650Z,84.20
2018-01-28T21:34:38.163Z,84.90
2018-01-28T21:37:05.719Z,85.70
2018-01-28T21:39:33.246Z,86.10
2018-01-28T21:42:00.796Z,85.60
2018-01-28T21:44:28.323Z,85.60
2018-01-28T21:46:55.954Z,85.90
2018-01-28T21:49:23.467Z,85.30
2018-01-28T21:51:50.983Z,85.10
2018-01-28T21:54:18.552Z,84.70
2018-01-28T21:56:46.079Z,85.80
2018-01-28T21:59:13.626Z,85.70
2018-01-28T22:01:41.164Z,86.20
2018-01-28T22:04:08.739Z,86.40
2018-01-28T22:06:36.335Z,86.40
2018-01-28T22:09:03.894Z,85.80
2018-01-28T22:11:31.463Z,86.30
2018-01-28T22:13:58.982Z,86.10
2018-01-28T22:16:26.538Z,86.10
2018-01-28T22:18:54.067Z,85.80
2018-01-28T22:21:21.663Z,86.10
2018-01-28T22:23:51.512Z,86.40
2018-01-28T22:26:20.776Z,86.50
2018-01-28T22:28:48.335Z,86.50
2018-01-28T22:31:16.062Z,86.60
2018-01-28T22:33:44.550Z,86.20
2018-01-28T22:36:12.070Z,85.60
2018-01-28T22:38:40.360Z,86.10
2018-01-28T22:41:07.912Z,86.10
2018-01-28T22:43:36.254Z,85.50
2018-01-28T22:46:03.803Z,85.50
2018-01-28T22:48:31.359Z,85.80
2018-01-28T22:50:58.922Z,85.20
2018-01-28T22:53:26.446Z,85.70
2018-01-28T22:55:54.003Z,85.40
2018-01-28T22:58:22.287Z,84.70
2018-01-28T23:00:49.815Z,84.70
2018-01-28T23:03:17.431Z,85.50
2018-01-28T23:05:44.960Z,86.40
2018-01-28T23:08:12.507Z,86.30
2018-01-28T23:10:40.851Z,86.20
2018-01-28T23:13:08.398Z,86.30
2018-01-28T23:15:36.146Z,86.20
2018-01-28T23:18:03.662Z,86.40
2018-01-28T23:20:32.886Z,87.00
2018-01-28T23:23:00.411Z,87.00
2018-01-28T23:25:27.943Z,87.20
2018-01-28T23:27:55.565Z,87.30
2018-01-28T23:30:23.116Z,87.60
2018-01-28T23:32:50.638Z,87.20
2018-01-28T23:35:18.427Z,87.10
2018-01-28T23:37:46.719Z,87.00
2018-01-28T23:40:14.276Z,87.00
2018-01-28T23:42:41.798Z,86.20
2018-01-28T23:45:09.334Z,86.70
2018-01-28T23:47:36.901Z,87.30
2018-01-28T23:50:04.439Z,86.40
2018-01-28T23:52:31.979Z,86.40
2018-01-28T23:54:59.502Z,86.40
2018-01-28T23:57:27.072Z,86.40
2018-01-28T23:59:55.394Z,86.10
